Crown City, Ohio
Current Conditions -  °F | °C
As of 2:51 AM on Monday 22 Dec 2014 (Local Time) from KHTS Reporting Station
Overcast Overcast  
Wind Chill: 32°   Ceiling: 4800
Heat Index: 32°   Visibility: 10mi
Dew Point: 27°   Wind: 3mph
Humidity: 82%   Direction: 110°ESE
Pressure: 30.07"   Gusts: NA
Location:  38.59°N, 82.28°W
Report Text: KHTS 220751Z 11003KT 10SM OVC048 00/M03 A3007 RMK AO2 SLP187 T00001028
Loading
Personal Weather Stations






























Interactive Weather Map New forecast layout! Learn more

10-Day Weather Forecast

Advertisements
Track Severe Weather on mobile